Time;durP1;ratioP1;P1;durP2;ratioP2;P2;SDS_P1;SDS_P2;PMS_P1;PMS_P2;Temp;Humidity;BMP_temperature;BMP_pressure;BME280_temperature;BME280_humidity;BME280_pressure;Samples;Min_cycle;Max_cycle;Signal;HPM_P1;HPM_P2
2022/03/21 00:00:48;;;;;;;49.03;35.77;;;;;;;;;;5044702;28;20211;-70
2022/03/21 00:03:14;;;;;;;46.53;33.90;;;;;;;;;;5057412;28;20524;-70
2022/03/21 00:05:40;;;;;;;47.63;34.27;;;;;;;;;;5062582;28;20825;-70
2022/03/21 00:08:05;;;;;;;46.53;35.58;;;;;;;;;;5058753;28;20214;-70
2022/03/21 00:10:33;;;;;;;46.70;34.85;;;;;;;;;;5053204;28;20256;-70
2022/03/21 00:13:00;;;;;;;44.67;33.50;;;;;;;;;;5038071;28;20796;-71
2022/03/21 00:15:26;;;;;;;47.00;35.07;;;;;;;;;;5040814;28;20223;-70
2022/03/21 00:17:51;;;;;;;46.73;35.47;;;;;;;;;;5047695;28;20276;-71
2022/03/21 00:20:17;;;;;;;50.33;36.65;;;;;;;;;;5049966;28;20210;-70
2022/03/21 00:22:42;;;;;;;47.58;35.83;;;;;;;;;;5055503;28;20207;-70
2022/03/21 00:25:08;;;;;;;49.60;36.70;;;;;;;;;;5041580;28;20690;-70
2022/03/21 00:27:34;;;;;;;50.17;37.25;;;;;;;;;;5042701;28;20272;-70
2022/03/21 00:29:59;;;;;;;47.73;35.90;;;;;;;;;;5042169;28;20265;-70
2022/03/21 00:32:25;;;;;;;47.07;36.00;;;;;;;;;;5034490;28;20210;-70
2022/03/21 00:34:50;;;;;;;52.25;37.08;;;;;;;;;;5035010;28;20252;-71
2022/03/21 00:37:15;;;;;;;53.90;37.23;;;;;;;;;;5036106;28;20215;-70
2022/03/21 00:39:41;;;;;;;49.23;36.10;;;;;;;;;;5060629;28;20222;-70
2022/03/21 00:42:06;;;;;;;51.40;35.88;;;;;;;;;;5062342;28;20225;-69
2022/03/21 00:44:33;;;;;;;48.00;36.77;;;;;;;;;;5058765;28;20210;-71
2022/03/21 00:46:58;;;;;;;49.93;37.30;;;;;;;;;;5042140;28;20714;-71
2022/03/21 00:49:23;;;;;;;49.40;35.70;;;;;;;;;;5042214;28;20222;-71
2022/03/21 00:51:48;;;;;;;51.42;36.28;;;;;;;;;;5043134;28;20229;-71
2022/03/21 00:54:14;;;;;;;51.00;37.03;;;;;;;;;;5039580;28;20801;-70
2022/03/21 00:56:39;;;;;;;49.58;35.95;;;;;;;;;;5034624;28;20558;-71
2022/03/21 00:59:05;;;;;;;46.83;34.22;;;;;;;;;;5034440;28;20235;-70
2022/03/21 01:01:30;;;;;;;46.80;35.07;;;;;;;;;;5038832;28;20222;-70
2022/03/21 01:03:55;;;;;;;49.53;37.78;;;;;;;;;;5042675;28;20221;-70
2022/03/21 01:06:22;;;;;;;51.20;37.17;;;;;;;;;;5060836;28;20683;-70
2022/03/21 01:08:47;;;;;;;49.17;35.93;;;;;;;;;;5061352;28;20736;-71
2022/03/21 01:11:13;;;;;;;51.77;37.50;;;;;;;;;;5061141;28;20219;-70
2022/03/21 01:13:41;;;;;;;55.80;39.83;;;;;;;;;;5061360;28;20399;-71
2022/03/21 01:16:07;;;;;;;51.50;38.03;;;;;;;;;;5058594;28;20214;-70
2022/03/21 01:18:32;;;;;;;50.53;36.90;;;;;;;;;;5053841;28;20216;-71
2022/03/21 01:20:57;;;;;;;53.33;39.13;;;;;;;;;;5053206;28;20211;-71
2022/03/21 01:23:22;;;;;;;54.10;38.83;;;;;;;;;;5043010;28;20604;-70
2022/03/21 01:25:48;;;;;;;53.97;37.55;;;;;;;;;;5041731;28;20227;-71
2022/03/21 01:28:13;;;;;;;54.03;39.27;;;;;;;;;;5040377;28;20219;-70
2022/03/21 01:30:39;;;;;;;54.97;39.13;;;;;;;;;;5042015;28;20345;-70
2022/03/21 01:33:04;;;;;;;51.97;37.77;;;;;;;;;;5041533;28;20203;-71
2022/03/21 01:35:29;;;;;;;50.40;37.60;;;;;;;;;;5041294;28;20218;-71
2022/03/21 01:37:54;;;;;;;50.35;37.13;;;;;;;;;;5060691;28;20214;-71
2022/03/21 01:40:20;;;;;;;48.40;36.85;;;;;;;;;;5053401;28;20252;-70
2022/03/21 01:42:47;;;;;;;53.55;38.15;;;;;;;;;;5052886;28;20222;-71
2022/03/21 01:45:12;;;;;;;51.17;36.90;;;;;;;;;;5044878;28;20330;-71
2022/03/21 01:47:37;;;;;;;50.30;37.47;;;;;;;;;;5040768;28;20333;-71
2022/03/21 01:50:03;;;;;;;49.28;36.50;;;;;;;;;;5040382;28;20340;-70
2022/03/21 01:52:28;;;;;;;50.65;36.10;;;;;;;;;;5060642;28;20214;-70
2022/03/21 01:57:38;;;;;;;52.17;37.20;;;;;;;;;;5060142;28;20294;-70
2022/03/21 02:00:04;;;;;;;49.07;35.27;;;;;;;;;;5047469;28;20234;-70
2022/03/21 02:02:29;;;;;;;48.50;35.65;;;;;;;;;;5054798;28;21025;-71
2022/03/21 02:04:54;;;;;;;53.47;35.67;;;;;;;;;;5052268;28;20218;-71
2022/03/21 02:07:20;;;;;;;47.80;34.30;;;;;;;;;;5053355;28;20225;-71
2022/03/21 02:09:45;;;;;;;46.90;33.33;;;;;;;;;;5058241;28;20226;-72
2022/03/21 02:12:10;;;;;;;50.60;34.40;;;;;;;;;;5040914;28;20246;-70
2022/03/21 02:14:39;;;;;;;46.22;31.63;;;;;;;;;;5039950;28;20268;-71
2022/03/21 02:17:04;;;;;;;45.10;31.73;;;;;;;;;;5059557;28;20237;-71
2022/03/21 02:19:30;;;;;;;44.77;30.40;;;;;;;;;;5060472;28;20210;-71
2022/03/21 02:22:08;;;;;;;44.27;30.50;;;;;;;;;;5059580;28;20210;-71
2022/03/21 02:24:37;;;;;;;43.07;29.93;;;;;;;;;;5055530;28;20259;-71
2022/03/21 02:27:02;;;;;;;42.90;30.60;;;;;;;;;;5033902;28;20229;-71
2022/03/21 02:29:28;;;;;;;44.27;28.80;;;;;;;;;;5052775;28;20210;-71
2022/03/21 02:31:54;;;;;;;39.10;29.17;;;;;;;;;;5035100;28;20294;-71
2022/03/21 02:34:20;;;;;;;41.63;28.47;;;;;;;;;;5038345;28;20641;-71
2022/03/21 02:36:45;;;;;;;42.10;28.97;;;;;;;;;;5039462;28;20211;-71
2022/03/21 02:39:10;;;;;;;37.93;27.87;;;;;;;;;;5039460;28;20589;-70
2022/03/21 02:41:36;;;;;;;36.00;26.90;;;;;;;;;;5041067;28;20203;-72
2022/03/21 02:44:01;;;;;;;41.20;28.37;;;;;;;;;;5039926;28;20554;-70
2022/03/21 02:46:26;;;;;;;39.13;28.50;;;;;;;;;;5044215;28;20218;-71
2022/03/21 02:48:54;;;;;;;40.95;27.98;;;;;;;;;;5052033;28;20271;-71
2022/03/21 02:51:20;;;;;;;38.30;28.10;;;;;;;;;;5052401;28;20347;-70
2022/03/21 02:53:46;;;;;;;39.17;27.50;;;;;;;;;;5053430;28;20234;-71
2022/03/21 02:56:12;;;;;;;37.20;25.87;;;;;;;;;;5059609;28;20240;-70
2022/03/21 02:58:37;;;;;;;36.33;26.07;;;;;;;;;;5059049;28;20214;-70
2022/03/21 03:01:10;;;;;;;37.33;26.27;;;;;;;;;;5039463;28;20211;-70
2022/03/21 03:03:35;;;;;;;36.30;24.77;;;;;;;;;;5060190;28;20213;-70
2022/03/21 03:06:02;;;;;;;34.57;24.83;;;;;;;;;;5058814;28;20317;-68
2022/03/21 03:08:27;;;;;;;32.43;24.43;;;;;;;;;;5060134;28;20213;-70
2022/03/21 03:10:52;;;;;;;34.55;25.08;;;;;;;;;;5053127;28;20261;-71
2022/03/21 03:13:17;;;;;;;36.13;24.50;;;;;;;;;;5051324;28;20222;-70
2022/03/21 03:15:43;;;;;;;33.67;23.88;;;;;;;;;;5052645;28;20297;-70
2022/03/21 03:18:08;;;;;;;35.83;23.53;;;;;;;;;;5058158;28;20214;-70
2022/03/21 03:20:34;;;;;;;35.90;24.10;;;;;;;;;;5059321;28;20557;-70
2022/03/21 03:22:59;;;;;;;32.10;22.90;;;;;;;;;;5050596;28;21052;-70
2022/03/21 03:25:25;;;;;;;35.27;22.37;;;;;;;;;;5039911;28;20230;-71
2022/03/21 03:27:50;;;;;;;31.53;21.27;;;;;;;;;;5040494;28;20218;-70
2022/03/21 03:30:16;;;;;;;31.53;22.33;;;;;;;;;;5059485;28;20295;-70
2022/03/21 03:32:41;;;;;;;30.13;21.87;;;;;;;;;;5046169;28;20312;-71
2022/03/21 03:35:06;;;;;;;35.70;22.85;;;;;;;;;;5031728;28;20213;-70
2022/03/21 03:37:32;;;;;;;34.40;22.83;;;;;;;;;;5032341;28;20206;-71
2022/03/21 03:39:57;;;;;;;31.37;22.00;;;;;;;;;;5036047;28;20223;-71
2022/03/21 03:42:22;;;;;;;34.13;22.10;;;;;;;;;;5038762;28;20210;-70
2022/03/21 03:44:48;;;;;;;31.23;21.53;;;;;;;;;;5039973;28;20695;-71
2022/03/21 03:47:13;;;;;;;30.67;20.50;;;;;;;;;;5042353;28;20224;-70
2022/03/21 03:49:38;;;;;;;32.83;22.73;;;;;;;;;;5043055;28;20215;-70
2022/03/21 03:52:03;;;;;;;31.37;21.30;;;;;;;;;;5043484;28;20686;-70
2022/03/21 03:54:29;;;;;;;33.63;22.27;;;;;;;;;;5042233;28;20227;-70
2022/03/21 03:56:54;;;;;;;28.13;19.70;;;;;;;;;;5035519;28;20800;-70
2022/03/21 03:59:19;;;;;;;27.13;19.53;;;;;;;;;;5035503;28;20686;-70
2022/03/21 04:01:45;;;;;;;30.53;20.83;;;;;;;;;;5036702;28;20215;-70
2022/03/21 04:04:10;;;;;;;32.70;19.60;;;;;;;;;;5041922;28;20244;-71
2022/03/21 04:06:36;;;;;;;32.47;19.57;;;;;;;;;;5053803;28;20223;-70
2022/03/21 04:09:02;;;;;;;25.27;17.77;;;;;;;;;;5042714;28;20241;-70
2022/03/21 04:11:27;;;;;;;25.92;17.50;;;;;;;;;;5041159;28;20671;-70
2022/03/21 04:13:53;;;;;;;27.40;18.40;;;;;;;;;;5043210;28;20570;-71
2022/03/21 04:16:18;;;;;;;30.23;19.47;;;;;;;;;;5042562;28;20226;-70
2022/03/21 04:18:43;;;;;;;26.27;17.93;;;;;;;;;;5035821;28;20635;-70
2022/03/21 04:21:08;;;;;;;24.80;16.83;;;;;;;;;;5035099;28;20296;-70
2022/03/21 04:23:34;;;;;;;26.63;17.63;;;;;;;;;;5035135;28;20804;-70
2022/03/21 04:25:59;;;;;;;28.63;18.50;;;;;;;;;;5040746;28;20265;-70
2022/03/21 04:28:24;;;;;;;29.33;17.83;;;;;;;;;;5043581;28;20302;-70
2022/03/21 04:30:50;;;;;;;26.40;17.63;;;;;;;;;;5044295;28;20613;-70
2022/03/21 04:33:15;;;;;;;28.80;19.23;;;;;;;;;;5043494;28;20211;-70
2022/03/21 04:35:41;;;;;;;25.20;16.13;;;;;;;;;;5042899;28;20349;-70
2022/03/21 04:38:13;;;;;;;26.70;17.07;;;;;;;;;;5041805;28;20211;-70
2022/03/21 04:40:41;;;;;;;26.57;17.77;;;;;;;;;;5059003;28;20682;-70
2022/03/21 04:43:08;;;;;;;27.37;17.70;;;;;;;;;;5054697;28;20242;-69
2022/03/21 04:45:33;;;;;;;25.40;17.57;;;;;;;;;;5041965;28;20570;-71
2022/03/21 04:47:58;;;;;;;27.67;17.73;;;;;;;;;;5038607;28;20211;-71
2022/03/21 04:50:24;;;;;;;28.07;18.00;;;;;;;;;;5042250;28;20207;-71
2022/03/21 04:52:49;;;;;;;25.27;16.83;;;;;;;;;;5045159;28;20254;-70
2022/03/21 04:55:15;;;;;;;27.90;17.07;;;;;;;;;;5061245;28;20596;-70
2022/03/21 04:57:40;;;;;;;23.50;16.77;;;;;;;;;;5061642;28;20578;-70
2022/03/21 05:00:06;;;;;;;27.70;18.57;;;;;;;;;;5039473;28;20219;-69
2022/03/21 05:02:31;;;;;;;24.63;17.03;;;;;;;;;;5042113;28;20199;-70
2022/03/21 05:04:56;;;;;;;23.87;16.80;;;;;;;;;;5053316;28;20455;-70
2022/03/21 05:07:22;;;;;;;26.67;17.00;;;;;;;;;;5052821;28;20455;-70
2022/03/21 05:09:48;;;;;;;25.27;16.50;;;;;;;;;;5055283;28;20207;-71
2022/03/21 05:12:13;;;;;;;26.50;17.63;;;;;;;;;;5060539;28;20317;-71
2022/03/21 05:14:39;;;;;;;26.47;18.77;;;;;;;;;;5043808;28;20198;-71
2022/03/21 05:17:05;;;;;;;28.30;17.70;;;;;;;;;;5061039;28;20218;-70
2022/03/21 05:19:32;;;;;;;25.90;17.67;;;;;;;;;;5047716;28;20301;-70
2022/03/21 05:21:57;;;;;;;30.40;18.27;;;;;;;;;;5059415;28;20264;-71
2022/03/21 05:32:34;;;;;;;27.47;18.23;;;;;;;;;;5044631;28;20728;-70
2022/03/21 05:37:43;;;;;;;33.37;19.40;;;;;;;;;;5060498;28;20253;-71
2022/03/21 05:42:55;;;;;;;28.53;19.73;;;;;;;;;;5058064;28;20656;-71
2022/03/21 05:45:20;;;;;;;29.87;19.70;;;;;;;;;;5039706;28;20277;-71
2022/03/21 05:50:33;;;;;;;28.73;19.37;;;;;;;;;;5053026;28;20221;-71
2022/03/21 05:52:58;;;;;;;32.90;20.37;;;;;;;;;;5032296;28;20214;-71
2022/03/21 05:55:23;;;;;;;31.50;20.10;;;;;;;;;;5033126;28;20678;-71
2022/03/21 05:57:49;;;;;;;28.27;18.53;;;;;;;;;;5042323;28;20220;-71
2022/03/21 06:00:20;;;;;;;32.77;20.67;;;;;;;;;;5045836;28;20430;-71
2022/03/21 06:02:45;;;;;;;30.67;20.90;;;;;;;;;;5059962;28;20573;-71
2022/03/21 06:05:11;;;;;;;33.83;21.30;;;;;;;;;;5041163;28;20253;-71
2022/03/21 06:07:36;;;;;;;30.73;20.70;;;;;;;;;;5041260;28;20248;-71
2022/03/21 06:10:02;;;;;;;35.33;22.60;;;;;;;;;;5058445;28;20211;-71
2022/03/21 06:12:27;;;;;;;33.00;20.37;;;;;;;;;;5054629;28;20210;-71
2022/03/21 06:14:52;;;;;;;33.40;21.50;;;;;;;;;;5053158;28;20297;-71
2022/03/21 06:17:18;;;;;;;34.60;20.50;;;;;;;;;;5062650;28;20261;-66
2022/03/21 06:19:43;;;;;;;33.33;21.23;;;;;;;;;;5050540;28;20214;-68
2022/03/21 06:22:08;;;;;;;34.57;21.20;;;;;;;;;;5050099;28;20223;-72
2022/03/21 06:24:33;;;;;;;31.57;21.97;;;;;;;;;;5049400;28;20419;-64
2022/03/21 06:26:59;;;;;;;32.27;20.73;;;;;;;;;;5050282;28;20778;-58
2022/03/21 06:29:24;;;;;;;33.77;21.87;;;;;;;;;;5049933;28;20211;-59
2022/03/21 06:31:49;;;;;;;35.80;22.33;;;;;;;;;;5052756;28;20647;-59
2022/03/21 06:34:14;;;;;;;34.30;21.83;;;;;;;;;;5050117;28;20226;-59
2022/03/21 06:36:40;;;;;;;34.70;21.30;;;;;;;;;;5050393;28;20223;-59
2022/03/21 06:39:05;;;;;;;31.50;20.63;;;;;;;;;;5048898;28;20234;-59
2022/03/21 06:41:30;;;;;;;32.23;21.37;;;;;;;;;;5050263;28;20217;-60
2022/03/21 06:43:56;;;;;;;32.13;21.70;;;;;;;;;;5032316;28;20581;-59
2022/03/21 06:46:21;;;;;;;29.83;20.17;;;;;;;;;;5067329;28;20673;-60
2022/03/21 06:48:46;;;;;;;34.28;20.05;;;;;;;;;;5069876;28;20252;-60
2022/03/21 06:51:11;;;;;;;29.50;19.67;;;;;;;;;;5068930;28;20614;-60
2022/03/21 06:53:37;;;;;;;27.92;19.23;;;;;;;;;;5069928;28;20306;-60
2022/03/21 06:56:02;;;;;;;25.88;19.02;;;;;;;;;;5069802;28;20656;-60
2022/03/21 06:58:28;;;;;;;31.17;21.48;;;;;;;;;;5068994;28;20253;-59
2022/03/21 07:00:53;;;;;;;28.00;19.80;;;;;;;;;;5049981;28;20211;-59
2022/03/21 07:03:19;;;;;;;28.83;20.42;;;;;;;;;;5049408;28;20577;-59
2022/03/21 07:05:44;;;;;;;27.15;18.55;;;;;;;;;;5049226;28;20231;-60
2022/03/21 07:08:09;;;;;;;24.55;17.88;;;;;;;;;;5049319;28;20226;-60
2022/03/21 07:10:35;;;;;;;26.13;18.42;;;;;;;;;;5055337;28;20213;-59
2022/03/21 07:13:01;;;;;;;26.70;18.40;;;;;;;;;;5057610;28;20634;-60
2022/03/21 07:15:26;;;;;;;26.90;18.77;;;;;;;;;;5057348;28;20222;-60
2022/03/21 07:17:51;;;;;;;28.48;20.10;;;;;;;;;;5041868;28;20211;-59
2022/03/21 07:20:20;;;;;;;29.08;19.92;;;;;;;;;;5058477;28;20203;-60
2022/03/21 07:22:45;;;;;;;31.05;21.52;;;;;;;;;;5062737;28;20234;-60
2022/03/21 07:25:10;;;;;;;28.55;20.15;;;;;;;;;;5065284;28;20254;-61
2022/03/21 07:27:36;;;;;;;29.20;21.48;;;;;;;;;;5062335;28;20276;-60
2022/03/21 07:30:01;;;;;;;29.00;21.63;;;;;;;;;;5063577;28;20206;-59
2022/03/21 07:32:27;;;;;;;27.90;20.80;;;;;;;;;;5065469;28;20219;-59
2022/03/21 07:34:52;;;;;;;28.17;21.05;;;;;;;;;;5068891;28;20210;-60
2022/03/21 07:37:17;;;;;;;29.63;21.35;;;;;;;;;;5072932;28;20210;-60
2022/03/21 07:39:46;;;;;;;32.30;22.20;;;;;;;;;;5073475;28;20225;-59
2022/03/21 07:42:16;;;;;;;27.55;21.65;;;;;;;;;;5072100;28;20249;-60
2022/03/21 07:47:26;;;;;;;23.30;19.60;;;;;;;;;;5052095;28;20226;-59
2022/03/21 07:49:51;;;;;;;28.85;20.23;;;;;;;;;;5052974;28;20223;-59
2022/03/21 07:52:18;;;;;;;26.10;20.98;;;;;;;;;;5052786;28;20203;-60
2022/03/21 07:54:44;;;;;;;29.80;21.25;;;;;;;;;;5052409;28;20227;-59
2022/03/21 07:57:09;;;;;;;27.75;20.67;;;;;;;;;;5052638;28;20740;-60
2022/03/21 07:59:35;;;;;;;30.83;22.00;;;;;;;;;;5062420;28;20661;-59
2022/03/21 08:02:03;;;;;;;29.42;20.67;;;;;;;;;;5072386;28;20221;-59
2022/03/21 08:04:28;;;;;;;27.40;20.80;;;;;;;;;;5072808;28;20210;-60
2022/03/21 08:06:57;;;;;;;26.45;20.38;;;;;;;;;;5072874;28;20287;-60
2022/03/21 08:09:24;;;;;;;27.38;19.92;;;;;;;;;;5071780;28;20271;-60
2022/03/21 08:11:49;;;;;;;26.33;19.50;;;;;;;;;;5072961;28;20213;-60
2022/03/21 08:14:15;;;;;;;27.95;20.23;;;;;;;;;;5072192;28;20206;-60
2022/03/21 08:16:40;;;;;;;27.90;20.10;;;;;;;;;;5072181;28;20271;-60
2022/03/21 08:19:06;;;;;;;27.25;19.67;;;;;;;;;;5072363;28;20215;-60
2022/03/21 08:21:32;;;;;;;28.48;19.40;;;;;;;;;;5072641;28;20731;-60
2022/03/21 08:23:57;;;;;;;30.58;19.70;;;;;;;;;;5072091;28;20289;-60
2022/03/21 08:26:23;;;;;;;26.02;19.17;;;;;;;;;;5071721;28;20229;-60
2022/03/21 08:28:48;;;;;;;26.30;19.58;;;;;;;;;;5054302;28;20218;-60
2022/03/21 08:31:13;;;;;;;32.22;20.17;;;;;;;;;;5050830;28;20235;-60
2022/03/21 08:33:39;;;;;;;29.35;21.10;;;;;;;;;;5052550;28;20215;-60
2022/03/21 08:36:04;;;;;;;31.70;20.10;;;;;;;;;;5051961;28;20284;-61
2022/03/21 08:38:30;;;;;;;33.60;20.85;;;;;;;;;;5051701;28;20207;-61
2022/03/21 08:40:56;;;;;;;30.73;20.88;;;;;;;;;;5052352;28;20588;-61
2022/03/21 08:43:21;;;;;;;36.10;21.02;;;;;;;;;;5052105;28;20276;-61
2022/03/21 08:45:48;;;;;;;35.42;20.38;;;;;;;;;;5047369;28;20759;-61
2022/03/21 08:48:13;;;;;;;29.95;20.00;;;;;;;;;;5071681;28;20222;-61
2022/03/21 08:50:38;;;;;;;36.03;20.40;;;;;;;;;;5071460;28;20198;-61
2022/03/21 08:53:04;;;;;;;26.65;19.60;;;;;;;;;;5071813;28;20284;-61
2022/03/21 08:55:29;;;;;;;33.10;20.40;;;;;;;;;;5071963;28;20223;-61
2022/03/21 08:57:54;;;;;;;33.63;20.60;;;;;;;;;;5071342;28;20211;-60
2022/03/21 09:00:19;;;;;;;34.20;20.15;;;;;;;;;;5055945;28;20222;-61
2022/03/21 09:02:48;;;;;;;30.20;19.85;;;;;;;;;;5034378;28;20216;-60
2022/03/21 09:05:14;;;;;;;32.95;20.58;;;;;;;;;;5050667;28;20219;-61
2022/03/21 09:07:40;;;;;;;30.95;20.00;;;;;;;;;;5051963;28;20261;-61
2022/03/21 09:10:06;;;;;;;29.98;20.05;;;;;;;;;;5033540;28;20261;-61
2022/03/21 09:12:32;;;;;;;27.40;19.77;;;;;;;;;;5051275;28;20215;-61
2022/03/21 09:14:57;;;;;;;29.65;19.33;;;;;;;;;;5051874;28;20222;-60
2022/03/21 09:17:22;;;;;;;27.92;19.52;;;;;;;;;;5051245;28;20211;-60
2022/03/21 09:19:48;;;;;;;25.92;19.10;;;;;;;;;;5050993;28;20272;-61
2022/03/21 09:22:13;;;;;;;27.00;18.70;;;;;;;;;;5051061;28;20243;-61
2022/03/21 09:24:38;;;;;;;26.50;18.92;;;;;;;;;;5033750;28;20242;-61
2022/03/21 09:27:04;;;;;;;27.42;19.23;;;;;;;;;;5050201;28;20631;-61
2022/03/21 09:29:30;;;;;;;27.45;19.55;;;;;;;;;;5050698;28;20666;-61
2022/03/21 09:31:55;;;;;;;27.63;19.73;;;;;;;;;;5071399;28;20249;-61
2022/03/21 09:34:20;;;;;;;24.77;19.10;;;;;;;;;;5070285;28;20221;-61
2022/03/21 09:36:46;;;;;;;27.33;19.50;;;;;;;;;;5071087;28;20215;-60
2022/03/21 09:39:12;;;;;;;26.70;19.15;;;;;;;;;;5070791;28;20213;-61
2022/03/21 09:41:37;;;;;;;30.50;20.33;;;;;;;;;;5070587;28;20214;-61
2022/03/21 09:44:04;;;;;;;29.45;18.90;;;;;;;;;;5069766;28;20214;-61
2022/03/21 09:46:29;;;;;;;27.50;19.05;;;;;;;;;;5051163;28;20297;-61
2022/03/21 09:48:55;;;;;;;25.85;19.75;;;;;;;;;;5050323;28;20281;-61
2022/03/21 09:51:21;;;;;;;25.30;19.02;;;;;;;;;;5050467;28;20737;-60
2022/03/21 09:53:46;;;;;;;25.45;18.85;;;;;;;;;;5050990;28;20239;-60
2022/03/21 09:56:12;;;;;;;24.67;19.02;;;;;;;;;;5049632;28;20723;-61
2022/03/21 09:58:37;;;;;;;26.80;19.35;;;;;;;;;;5052071;28;20207;-61
2022/03/21 10:01:02;;;;;;;26.13;19.17;;;;;;;;;;5069416;28;20285;-61
2022/03/21 10:03:29;;;;;;;26.52;19.05;;;;;;;;;;5070919;28;20210;-61
2022/03/21 10:05:54;;;;;;;27.27;19.08;;;;;;;;;;5070712;28;20232;-60
2022/03/21 10:08:21;;;;;;;24.30;18.35;;;;;;;;;;5069311;28;20226;-60
2022/03/21 10:10:51;;;;;;;24.08;18.00;;;;;;;;;;5070777;28;20202;-60
2022/03/21 10:13:17;;;;;;;26.35;18.35;;;;;;;;;;5069982;28;20246;-60
2022/03/21 10:15:42;;;;;;;26.65;17.92;;;;;;;;;;5070189;28;20245;-60
2022/03/21 10:18:08;;;;;;;27.25;18.85;;;;;;;;;;5052031;28;20298;-60
2022/03/21 10:20:33;;;;;;;23.55;17.63;;;;;;;;;;5070549;28;20670;-60
2022/03/21 10:23:03;;;;;;;22.90;17.83;;;;;;;;;;5051613;28;20237;-60
2022/03/21 10:25:28;;;;;;;25.13;17.92;;;;;;;;;;5052132;28;20214;-60
2022/03/21 10:27:54;;;;;;;23.80;16.83;;;;;;;;;;5059752;28;20210;-60
2022/03/21 10:30:22;;;;;;;24.25;17.20;;;;;;;;;;5049374;28;20207;-60
2022/03/21 10:32:51;;;;;;;29.13;18.77;;;;;;;;;;5050214;28;20233;-60
2022/03/21 10:35:17;;;;;;;24.65;17.95;;;;;;;;;;5049953;28;20693;-60
2022/03/21 10:37:45;;;;;;;24.10;18.52;;;;;;;;;;5049494;28;20207;-60
2022/03/21 10:40:17;;;;;;;25.00;18.83;;;;;;;;;;5049958;28;20252;-60
2022/03/21 10:42:48;;;;;;;25.52;18.63;;;;;;;;;;5050426;28;20210;-60
2022/03/21 10:45:13;;;;;;;31.33;18.98;;;;;;;;;;5058074;28;20240;-60
2022/03/21 10:47:47;;;;;;;24.35;19.15;;;;;;;;;;5070080;28;20253;-60
2022/03/21 10:50:12;;;;;;;25.40;18.30;;;;;;;;;;5068906;28;20206;-60
2022/03/21 10:52:38;;;;;;;27.25;19.67;;;;;;;;;;5070073;28;20203;-60
2022/03/21 10:55:04;;;;;;;26.50;18.27;;;;;;;;;;5069322;28;20907;-60
2022/03/21 10:57:31;;;;;;;24.40;19.05;;;;;;;;;;5069364;28;20212;-60
2022/03/21 11:00:12;;;;;;;27.05;19.52;;;;;;;;;;5057536;28;20239;-60
2022/03/21 11:02:47;;;;;;;25.27;19.38;;;;;;;;;;5049581;28;20210;-60
2022/03/21 11:05:12;;;;;;;26.65;20.00;;;;;;;;;;5031127;28;20320;-60
2022/03/21 11:07:38;;;;;;;27.33;20.45;;;;;;;;;;5032539;28;20678;-60
2022/03/21 11:10:04;;;;;;;28.75;20.13;;;;;;;;;;5049549;28;20280;-60
2022/03/21 11:12:29;;;;;;;25.20;20.00;;;;;;;;;;5049281;28;20651;-60
2022/03/21 11:14:54;;;;;;;24.80;19.35;;;;;;;;;;5032396;28;20219;-60
2022/03/21 11:17:19;;;;;;;28.10;20.38;;;;;;;;;;5049493;28;20222;-60
2022/03/21 11:19:45;;;;;;;27.77;20.10;;;;;;;;;;5031490;28;20207;-60
2022/03/21 11:22:10;;;;;;;27.38;19.75;;;;;;;;;;5049796;28;20576;-61
2022/03/21 11:24:36;;;;;;;26.63;20.40;;;;;;;;;;5058783;28;20293;-60
2022/03/21 11:27:08;;;;;;;23.80;19.50;;;;;;;;;;5047576;28;20220;-60
2022/03/21 11:29:45;;;;;;;26.00;18.98;;;;;;;;;;5049626;28;20238;-60
2022/03/21 11:32:10;;;;;;;30.65;20.77;;;;;;;;;;5051292;28;20676;-60
2022/03/21 11:34:56;;;;;;;25.40;21.13;;;;;;;;;;5069230;28;20264;-60
2022/03/21 11:37:26;;;;;;;25.73;20.35;;;;;;;;;;5066805;28;20253;-60
2022/03/21 11:40:11;;;;;;;26.45;20.30;;;;;;;;;;5089004;28;20217;-60
2022/03/21 11:42:36;;;;;;;28.85;19.92;;;;;;;;;;5089608;28;20440;-60
2022/03/21 11:45:20;;;;;;;24.90;19.15;;;;;;;;;;5063622;28;20224;-61
2022/03/21 11:47:45;;;;;;;29.73;19.98;;;;;;;;;;5068996;28;20206;-60
2022/03/21 11:50:23;;;;;;;24.60;18.42;;;;;;;;;;5051495;28;20319;-60
2022/03/21 11:53:07;;;;;;;24.58;19.08;;;;;;;;;;5069785;28;20662;-60
2022/03/21 11:55:38;;;;;;;28.52;20.15;;;;;;;;;;5068241;28;20237;-60
2022/03/21 11:58:23;;;;;;;23.20;17.48;;;;;;;;;;5069281;28;20303;-60
2022/03/21 12:01:02;;;;;;;26.60;20.33;;;;;;;;;;5048831;28;20243;-59
2022/03/21 12:03:27;;;;;;;28.13;20.38;;;;;;;;;;5049117;28;20221;-59
2022/03/21 12:05:52;;;;;;;25.55;19.92;;;;;;;;;;5049848;28;20227;-60
2022/03/21 12:08:33;;;;;;;25.60;19.05;;;;;;;;;;5051280;28;20215;-59
2022/03/21 12:10:59;;;;;;;27.08;19.92;;;;;;;;;;5053022;28;20269;-59
2022/03/21 12:13:24;;;;;;;29.50;21.95;;;;;;;;;;5052705;28;20235;-59
2022/03/21 12:15:50;;;;;;;25.80;19.40;;;;;;;;;;5052106;28;20219;-59
2022/03/21 12:18:16;;;;;;;27.30;19.90;;;;;;;;;;5052555;28;20241;-59
2022/03/21 12:20:45;;;;;;;28.00;20.48;;;;;;;;;;5035060;28;20298;-59
2022/03/21 12:23:14;;;;;;;27.08;19.42;;;;;;;;;;5051308;28;20724;-60
2022/03/21 12:25:39;;;;;;;24.63;18.50;;;;;;;;;;5052799;28;20227;-60
2022/03/21 12:28:20;;;;;;;29.42;20.63;;;;;;;;;;5058743;28;20222;-60
2022/03/21 12:30:48;;;;;;;27.80;19.13;;;;;;;;;;5051866;28;20207;-59
2022/03/21 12:33:13;;;;;;;26.73;18.92;;;;;;;;;;5052460;28;20215;-59
2022/03/21 12:35:40;;;;;;;24.80;19.17;;;;;;;;;;5066624;28;20206;-59
2022/03/21 12:38:07;;;;;;;28.58;20.73;;;;;;;;;;5071691;28;20699;-60
2022/03/21 12:40:32;;;;;;;27.23;18.02;;;;;;;;;;5064501;28;20221;-59
2022/03/21 12:42:58;;;;;;;27.52;18.58;;;;;;;;;;5059414;28;20211;-59
2022/03/21 12:45:24;;;;;;;29.55;19.90;;;;;;;;;;5043072;28;20230;-59
2022/03/21 12:47:49;;;;;;;25.15;19.88;;;;;;;;;;5052716;28;20215;-59
2022/03/21 12:50:19;;;;;;;26.63;20.63;;;;;;;;;;5051092;28;20208;-60
2022/03/21 12:52:44;;;;;;;28.45;21.40;;;;;;;;;;5052445;28;20203;-59
2022/03/21 12:55:13;;;;;;;29.02;21.48;;;;;;;;;;5033705;28;20250;-59
2022/03/21 12:57:54;;;;;;;27.90;20.60;;;;;;;;;;5051549;28;20292;-59
2022/03/21 13:00:20;;;;;;;26.85;19.45;;;;;;;;;;5051518;28;20674;-59
2022/03/21 13:02:46;;;;;;;25.58;20.13;;;;;;;;;;5052246;28;20229;-59
2022/03/21 13:10:39;;;;;;;27.92;21.27;;;;;;;;;;5051369;28;20226;-59
2022/03/21 13:13:05;;;;;;;29.92;20.45;;;;;;;;;;5050692;28;20670;-60
2022/03/21 13:15:31;;;;;;;26.58;19.38;;;;;;;;;;5051521;28;20211;-60
2022/03/21 13:18:01;;;;;;;30.08;20.75;;;;;;;;;;5050618;28;20694;-59
2022/03/21 13:20:26;;;;;;;27.92;20.50;;;;;;;;;;5051329;28;20215;-59
2022/03/21 13:22:52;;;;;;;33.50;22.33;;;;;;;;;;5051752;28;20258;-59
2022/03/21 13:25:23;;;;;;;32.10;21.67;;;;;;;;;;5032602;28;20230;-59
2022/03/21 13:27:50;;;;;;;30.27;22.42;;;;;;;;;;5061088;28;20685;-59
2022/03/21 13:30:15;;;;;;;28.20;20.55;;;;;;;;;;5053265;28;20203;-60
2022/03/21 13:32:41;;;;;;;28.73;20.70;;;;;;;;;;5070803;28;20233;-59
2022/03/21 13:35:06;;;;;;;28.00;20.80;;;;;;;;;;5071020;28;20215;-60
2022/03/21 13:37:31;;;;;;;28.63;20.45;;;;;;;;;;5071303;28;20666;-60
2022/03/21 13:39:58;;;;;;;29.85;20.73;;;;;;;;;;5070583;28;20206;-59
2022/03/21 13:42:23;;;;;;;33.35;21.45;;;;;;;;;;5070745;28;20210;-60
2022/03/21 13:44:49;;;;;;;27.35;21.20;;;;;;;;;;5065188;28;20200;-59
2022/03/21 13:47:15;;;;;;;26.13;19.98;;;;;;;;;;5049935;28;20226;-59
2022/03/21 13:49:41;;;;;;;30.90;21.15;;;;;;;;;;5051053;28;20227;-59
2022/03/21 13:52:06;;;;;;;28.58;21.08;;;;;;;;;;5050411;28;20587;-60
2022/03/21 13:54:46;;;;;;;26.77;20.38;;;;;;;;;;5057041;28;20219;-60
2022/03/21 13:57:12;;;;;;;31.98;22.23;;;;;;;;;;5070232;28;20217;-59
2022/03/21 13:59:37;;;;;;;26.90;20.70;;;;;;;;;;5060693;28;20211;-59
2022/03/21 14:02:04;;;;;;;31.15;21.05;;;;;;;;;;5049571;28;20294;-59
2022/03/21 14:04:29;;;;;;;29.42;20.60;;;;;;;;;;5050966;28;20207;-59
2022/03/21 14:06:58;;;;;;;29.77;21.55;;;;;;;;;;5032694;28;20276;-59
2022/03/21 14:09:23;;;;;;;30.65;21.10;;;;;;;;;;5049450;28;20230;-59
2022/03/21 14:11:59;;;;;;;27.30;21.17;;;;;;;;;;5050806;28;20234;-59
2022/03/21 14:14:24;;;;;;;30.25;20.60;;;;;;;;;;5049132;28;20266;-59
2022/03/21 14:16:49;;;;;;;28.00;21.05;;;;;;;;;;5050772;28;20215;-59
2022/03/21 14:19:15;;;;;;;25.98;21.05;;;;;;;;;;5050152;28;20230;-59
2022/03/21 14:21:40;;;;;;;31.92;21.33;;;;;;;;;;5049551;28;20219;-59
2022/03/21 14:24:06;;;;;;;29.52;20.98;;;;;;;;;;5050181;28;20200;-60
2022/03/21 14:26:34;;;;;;;30.50;21.50;;;;;;;;;;5050563;28;20218;-59
2022/03/21 14:28:59;;;;;;;27.85;20.90;;;;;;;;;;5061987;28;20225;-59
2022/03/21 14:31:25;;;;;;;29.38;21.25;;;;;;;;;;5069511;28;20211;-59
2022/03/21 14:33:50;;;;;;;31.10;20.80;;;;;;;;;;5070494;28;20214;-59
2022/03/21 14:36:15;;;;;;;30.02;21.33;;;;;;;;;;5069179;28;20245;-59
2022/03/21 14:38:41;;;;;;;29.08;20.52;;;;;;;;;;5070168;28;20218;-59